sensor_id;sensor_type;location;lat;lon;timestamp;P1;durP1;ratioP1;P2;durP2;ratioP2
3155;SDS011;1588;50.892;7.082;2024-01-07T00:02:41;32.80;;;11.07;;
3155;SDS011;1588;50.892;7.082;2024-01-07T00:07:45;34.23;;;12.47;;
3155;SDS011;1588;50.892;7.082;2024-01-07T00:12:48;34.87;;;9.97;;
3155;SDS011;1588;50.892;7.082;2024-01-07T00:17:52;31.17;;;11.23;;
3155;SDS011;1588;50.892;7.082;2024-01-07T00:22:56;28.50;;;10.10;;
3155;SDS011;1588;50.892;7.082;2024-01-07T00:27:59;36.80;;;10.77;;
3155;SDS011;1588;50.892;7.082;2024-01-07T00:33:02;28.93;;;11.60;;
3155;SDS011;1588;50.892;7.082;2024-01-07T00:38:06;25.80;;;10.03;;
3155;SDS011;1588;50.892;7.082;2024-01-07T00:43:08;29.27;;;10.10;;
3155;SDS011;1588;50.892;7.082;2024-01-07T00:48:10;25.17;;;9.33;;
3155;SDS011;1588;50.892;7.082;2024-01-07T00:53:14;24.80;;;9.47;;
3155;SDS011;1588;50.892;7.082;2024-01-07T00:58:16;30.83;;;10.33;;
3155;SDS011;1588;50.892;7.082;2024-01-07T01:03:18;27.20;;;9.47;;
3155;SDS011;1588;50.892;7.082;2024-01-07T01:08:22;24.20;;;8.70;;
3155;SDS011;1588;50.892;7.082;2024-01-07T01:13:24;28.40;;;8.30;;
3155;SDS011;1588;50.892;7.082;2024-01-07T01:18:27;21.77;;;8.17;;
3155;SDS011;1588;50.892;7.082;2024-01-07T01:23:30;24.00;;;8.60;;
3155;SDS011;1588;50.892;7.082;2024-01-07T01:28:33;18.03;;;7.50;;
3155;SDS011;1588;50.892;7.082;2024-01-07T01:33:35;18.87;;;7.37;;
3155;SDS011;1588;50.892;7.082;2024-01-07T01:38:39;18.50;;;7.07;;
3155;SDS011;1588;50.892;7.082;2024-01-07T01:43:41;19.07;;;6.50;;
3155;SDS011;1588;50.892;7.082;2024-01-07T01:48:43;17.97;;;6.50;;
3155;SDS011;1588;50.892;7.082;2024-01-07T01:53:50;20.67;;;7.60;;
3155;SDS011;1588;50.892;7.082;2024-01-07T01:58:54;18.00;;;7.40;;
3155;SDS011;1588;50.892;7.082;2024-01-07T02:03:57;19.40;;;7.53;;
3155;SDS011;1588;50.892;7.082;2024-01-07T02:09:01;18.10;;;7.07;;
3155;SDS011;1588;50.892;7.082;2024-01-07T02:14:04;18.20;;;7.00;;
3155;SDS011;1588;50.892;7.082;2024-01-07T02:19:06;18.43;;;6.80;;
3155;SDS011;1588;50.892;7.082;2024-01-07T02:24:16;20.17;;;6.60;;
3155;SDS011;1588;50.892;7.082;2024-01-07T02:29:18;21.40;;;7.47;;
3155;SDS011;1588;50.892;7.082;2024-01-07T02:34:20;22.20;;;7.83;;
3155;SDS011;1588;50.892;7.082;2024-01-07T02:39:24;21.30;;;7.60;;
3155;SDS011;1588;50.892;7.082;2024-01-07T02:44:26;21.90;;;8.23;;
3155;SDS011;1588;50.892;7.082;2024-01-07T02:49:29;27.03;;;8.20;;
3155;SDS011;1588;50.892;7.082;2024-01-07T02:54:36;27.87;;;10.00;;
3155;SDS011;1588;50.892;7.082;2024-01-07T02:59:39;39.10;;;11.50;;
3155;SDS011;1588;50.892;7.082;2024-01-07T03:04:41;24.27;;;9.67;;
3155;SDS011;1588;50.892;7.082;2024-01-07T03:09:47;29.90;;;11.20;;
3155;SDS011;1588;50.892;7.082;2024-01-07T03:14:50;33.63;;;11.47;;
3155;SDS011;1588;50.892;7.082;2024-01-07T03:19:52;31.03;;;10.77;;
3155;SDS011;1588;50.892;7.082;2024-01-07T03:24:56;27.40;;;11.13;;
3155;SDS011;1588;50.892;7.082;2024-01-07T03:29:58;32.07;;;10.33;;
3155;SDS011;1588;50.892;7.082;2024-01-07T03:35:01;24.50;;;9.70;;
3155;SDS011;1588;50.892;7.082;2024-01-07T03:40:07;24.93;;;8.87;;
3155;SDS011;1588;50.892;7.082;2024-01-07T03:45:12;28.77;;;11.60;;
3155;SDS011;1588;50.892;7.082;2024-01-07T03:50:14;28.97;;;9.87;;
3155;SDS011;1588;50.892;7.082;2024-01-07T03:55:18;25.63;;;10.03;;
3155;SDS011;1588;50.892;7.082;2024-01-07T04:00:20;22.77;;;9.67;;
3155;SDS011;1588;50.892;7.082;2024-01-07T04:05:23;20.17;;;8.30;;
3155;SDS011;1588;50.892;7.082;2024-01-07T04:10:26;21.50;;;8.57;;
3155;SDS011;1588;50.892;7.082;2024-01-07T04:15:29;23.50;;;8.83;;
3155;SDS011;1588;50.892;7.082;2024-01-07T04:20:31;20.23;;;8.10;;
3155;SDS011;1588;50.892;7.082;2024-01-07T04:25:35;25.73;;;8.23;;
3155;SDS011;1588;50.892;7.082;2024-01-07T04:30:38;24.70;;;8.97;;
3155;SDS011;1588;50.892;7.082;2024-01-07T04:35:40;23.00;;;7.00;;
3155;SDS011;1588;50.892;7.082;2024-01-07T04:40:44;22.20;;;8.13;;
3155;SDS011;1588;50.892;7.082;2024-01-07T04:45:47;21.47;;;8.40;;
3155;SDS011;1588;50.892;7.082;2024-01-07T04:50:49;23.30;;;9.23;;
3155;SDS011;1588;50.892;7.082;2024-01-07T04:55:53;25.17;;;9.13;;
3155;SDS011;1588;50.892;7.082;2024-01-07T05:00:55;27.73;;;9.60;;
3155;SDS011;1588;50.892;7.082;2024-01-07T05:05:57;20.67;;;8.17;;
3155;SDS011;1588;50.892;7.082;2024-01-07T05:11:01;22.43;;;9.50;;
3155;SDS011;1588;50.892;7.082;2024-01-07T05:16:04;19.73;;;8.97;;
3155;SDS011;1588;50.892;7.082;2024-01-07T05:21:07;31.30;;;9.70;;
3155;SDS011;1588;50.892;7.082;2024-01-07T05:26:10;28.20;;;8.57;;
3155;SDS011;1588;50.892;7.082;2024-01-07T05:31:15;32.20;;;11.60;;
3155;SDS011;1588;50.892;7.082;2024-01-07T05:36:18;27.67;;;10.40;;
3155;SDS011;1588;50.892;7.082;2024-01-07T05:41:22;29.03;;;11.20;;
3155;SDS011;1588;50.892;7.082;2024-01-07T05:46:24;31.17;;;11.97;;
3155;SDS011;1588;50.892;7.082;2024-01-07T05:51:26;36.10;;;12.00;;
3155;SDS011;1588;50.892;7.082;2024-01-07T05:56:30;27.03;;;10.40;;
3155;SDS011;1588;50.892;7.082;2024-01-07T06:01:32;32.03;;;10.43;;
3155;SDS011;1588;50.892;7.082;2024-01-07T06:06:35;30.30;;;11.33;;
3155;SDS011;1588;50.892;7.082;2024-01-07T06:11:39;29.03;;;10.27;;
3155;SDS011;1588;50.892;7.082;2024-01-07T06:16:43;27.43;;;10.37;;
3155;SDS011;1588;50.892;7.082;2024-01-07T06:21:45;30.00;;;11.70;;
3155;SDS011;1588;50.892;7.082;2024-01-07T06:26:55;26.63;;;10.33;;
3155;SDS011;1588;50.892;7.082;2024-01-07T06:31:57;29.30;;;11.40;;
3155;SDS011;1588;50.892;7.082;2024-01-07T06:37:00;29.43;;;10.87;;
3155;SDS011;1588;50.892;7.082;2024-01-07T06:42:08;28.30;;;11.37;;
3155;SDS011;1588;50.892;7.082;2024-01-07T06:47:11;27.30;;;10.53;;
3155;SDS011;1588;50.892;7.082;2024-01-07T06:52:13;24.10;;;9.20;;
3155;SDS011;1588;50.892;7.082;2024-01-07T06:57:16;30.90;;;11.30;;
3155;SDS011;1588;50.892;7.082;2024-01-07T07:02:19;32.80;;;10.00;;
3155;SDS011;1588;50.892;7.082;2024-01-07T07:07:22;27.23;;;9.90;;
3155;SDS011;1588;50.892;7.082;2024-01-07T07:12:25;25.67;;;10.40;;
3155;SDS011;1588;50.892;7.082;2024-01-07T07:17:28;32.50;;;11.20;;
3155;SDS011;1588;50.892;7.082;2024-01-07T07:22:30;28.43;;;11.10;;
3155;SDS011;1588;50.892;7.082;2024-01-07T07:27:34;23.93;;;10.00;;
3155;SDS011;1588;50.892;7.082;2024-01-07T07:32:38;28.23;;;9.43;;
3155;SDS011;1588;50.892;7.082;2024-01-07T07:37:42;25.17;;;10.13;;
3155;SDS011;1588;50.892;7.082;2024-01-07T07:42:46;23.23;;;9.80;;
3155;SDS011;1588;50.892;7.082;2024-01-07T07:47:48;22.67;;;9.50;;
3155;SDS011;1588;50.892;7.082;2024-01-07T07:52:50;24.17;;;10.60;;
3155;SDS011;1588;50.892;7.082;2024-01-07T07:57:55;17.23;;;8.13;;
3155;SDS011;1588;50.892;7.082;2024-01-07T08:02:58;26.03;;;9.50;;
3155;SDS011;1588;50.892;7.082;2024-01-07T08:08:06;20.43;;;8.93;;
3155;SDS011;1588;50.892;7.082;2024-01-07T08:13:10;24.20;;;9.33;;
3155;SDS011;1588;50.892;7.082;2024-01-07T08:18:12;22.43;;;8.80;;
3155;SDS011;1588;50.892;7.082;2024-01-07T08:23:15;21.03;;;8.40;;
3155;SDS011;1588;50.892;7.082;2024-01-07T08:28:27;21.40;;;9.40;;
3155;SDS011;1588;50.892;7.082;2024-01-07T08:33:30;25.10;;;9.50;;
3155;SDS011;1588;50.892;7.082;2024-01-07T08:38:33;20.83;;;8.20;;
3155;SDS011;1588;50.892;7.082;2024-01-07T08:43:38;26.63;;;9.20;;
3155;SDS011;1588;50.892;7.082;2024-01-07T08:48:40;21.57;;;9.03;;
3155;SDS011;1588;50.892;7.082;2024-01-07T08:53:44;28.03;;;7.93;;
3155;SDS011;1588;50.892;7.082;2024-01-07T08:58:47;20.93;;;8.70;;
3155;SDS011;1588;50.892;7.082;2024-01-07T09:03:50;24.37;;;8.97;;
3155;SDS011;1588;50.892;7.082;2024-01-07T09:08:52;30.77;;;10.67;;
3155;SDS011;1588;50.892;7.082;2024-01-07T09:13:56;22.37;;;10.10;;
3155;SDS011;1588;50.892;7.082;2024-01-07T09:18:59;31.00;;;11.17;;
3155;SDS011;1588;50.892;7.082;2024-01-07T09:24:02;27.93;;;10.57;;
3155;SDS011;1588;50.892;7.082;2024-01-07T09:29:06;28.87;;;10.63;;
3155;SDS011;1588;50.892;7.082;2024-01-07T09:34:09;30.67;;;10.70;;
3155;SDS011;1588;50.892;7.082;2024-01-07T09:39:11;23.77;;;10.30;;
3155;SDS011;1588;50.892;7.082;2024-01-07T09:44:15;25.57;;;9.53;;
3155;SDS011;1588;50.892;7.082;2024-01-07T09:49:27;23.50;;;9.30;;
3155;SDS011;1588;50.892;7.082;2024-01-07T09:54:33;26.07;;;10.63;;
3155;SDS011;1588;50.892;7.082;2024-01-07T09:59:39;25.57;;;11.07;;
3155;SDS011;1588;50.892;7.082;2024-01-07T10:04:42;28.10;;;10.70;;
3155;SDS011;1588;50.892;7.082;2024-01-07T10:09:45;26.10;;;10.70;;
3155;SDS011;1588;50.892;7.082;2024-01-07T10:14:49;30.30;;;11.87;;
3155;SDS011;1588;50.892;7.082;2024-01-07T10:19:52;21.40;;;9.60;;
3155;SDS011;1588;50.892;7.082;2024-01-07T10:24:54;14.87;;;6.93;;
3155;SDS011;1588;50.892;7.082;2024-01-07T10:29:59;17.50;;;7.70;;
3155;SDS011;1588;50.892;7.082;2024-01-07T10:35:02;15.60;;;7.93;;
3155;SDS011;1588;50.892;7.082;2024-01-07T10:40:07;14.37;;;7.07;;
3155;SDS011;1588;50.892;7.082;2024-01-07T10:45:14;16.07;;;6.83;;
3155;SDS011;1588;50.892;7.082;2024-01-07T10:50:16;13.47;;;6.67;;
3155;SDS011;1588;50.892;7.082;2024-01-07T10:55:19;22.13;;;8.83;;
3155;SDS011;1588;50.892;7.082;2024-01-07T11:00:28;18.33;;;7.93;;
3155;SDS011;1588;50.892;7.082;2024-01-07T11:05:34;16.73;;;7.00;;
3155;SDS011;1588;50.892;7.082;2024-01-07T11:10:43;24.50;;;9.80;;
3155;SDS011;1588;50.892;7.082;2024-01-07T11:15:54;22.23;;;8.60;;
3155;SDS011;1588;50.892;7.082;2024-01-07T11:20:58;29.80;;;10.70;;
3155;SDS011;1588;50.892;7.082;2024-01-07T11:26:01;26.23;;;9.23;;
3155;SDS011;1588;50.892;7.082;2024-01-07T11:31:05;22.07;;;9.27;;
3155;SDS011;1588;50.892;7.082;2024-01-07T11:36:10;21.77;;;9.80;;
3155;SDS011;1588;50.892;7.082;2024-01-07T11:41:15;25.23;;;9.63;;
3155;SDS011;1588;50.892;7.082;2024-01-07T11:46:20;24.07;;;10.00;;
3155;SDS011;1588;50.892;7.082;2024-01-07T11:51:32;23.00;;;9.97;;
3155;SDS011;1588;50.892;7.082;2024-01-07T11:56:35;24.20;;;10.00;;
3155;SDS011;1588;50.892;7.082;2024-01-07T12:01:40;25.63;;;10.77;;
3155;SDS011;1588;50.892;7.082;2024-01-07T12:06:43;37.27;;;17.53;;
3155;SDS011;1588;50.892;7.082;2024-01-07T12:11:45;24.83;;;10.90;;
3155;SDS011;1588;50.892;7.082;2024-01-07T12:16:49;20.70;;;10.40;;
3155;SDS011;1588;50.892;7.082;2024-01-07T12:22:00;23.63;;;10.53;;
3155;SDS011;1588;50.892;7.082;2024-01-07T12:27:04;18.13;;;9.37;;
3155;SDS011;1588;50.892;7.082;2024-01-07T12:32:08;25.10;;;10.33;;
3155;SDS011;1588;50.892;7.082;2024-01-07T12:37:12;23.17;;;9.57;;
3155;SDS011;1588;50.892;7.082;2024-01-07T12:42:15;17.27;;;8.57;;
3155;SDS011;1588;50.892;7.082;2024-01-07T12:47:21;19.00;;;9.00;;
3155;SDS011;1588;50.892;7.082;2024-01-07T12:52:24;17.77;;;7.00;;
3155;SDS011;1588;50.892;7.082;2024-01-07T12:57:27;16.37;;;7.30;;
3155;SDS011;1588;50.892;7.082;2024-01-07T13:02:31;15.60;;;7.40;;
3155;SDS011;1588;50.892;7.082;2024-01-07T13:07:34;17.97;;;7.10;;
3155;SDS011;1588;50.892;7.082;2024-01-07T13:12:37;15.27;;;6.93;;
3155;SDS011;1588;50.892;7.082;2024-01-07T13:17:41;12.33;;;6.70;;
3155;SDS011;1588;50.892;7.082;2024-01-07T13:22:44;16.17;;;7.20;;
3155;SDS011;1588;50.892;7.082;2024-01-07T13:27:46;19.33;;;6.90;;
3155;SDS011;1588;50.892;7.082;2024-01-07T13:32:50;17.87;;;7.60;;
3155;SDS011;1588;50.892;7.082;2024-01-07T13:37:57;23.17;;;7.20;;
3155;SDS011;1588;50.892;7.082;2024-01-07T13:42:59;10.80;;;5.23;;
3155;SDS011;1588;50.892;7.082;2024-01-07T13:48:05;10.50;;;5.57;;
3155;SDS011;1588;50.892;7.082;2024-01-07T13:53:08;11.30;;;5.50;;
3155;SDS011;1588;50.892;7.082;2024-01-07T13:58:10;11.03;;;5.70;;
3155;SDS011;1588;50.892;7.082;2024-01-07T14:03:14;12.30;;;6.70;;
3155;SDS011;1588;50.892;7.082;2024-01-07T14:08:16;11.37;;;5.70;;
3155;SDS011;1588;50.892;7.082;2024-01-07T14:13:22;9.50;;;5.47;;
3155;SDS011;1588;50.892;7.082;2024-01-07T14:18:26;11.57;;;6.33;;
3155;SDS011;1588;50.892;7.082;2024-01-07T14:23:30;13.33;;;6.20;;
3155;SDS011;1588;50.892;7.082;2024-01-07T14:28:34;11.53;;;5.43;;
3155;SDS011;1588;50.892;7.082;2024-01-07T14:33:38;11.57;;;5.20;;
3155;SDS011;1588;50.892;7.082;2024-01-07T14:38:41;10.67;;;5.47;;
3155;SDS011;1588;50.892;7.082;2024-01-07T14:43:43;11.27;;;5.20;;
3155;SDS011;1588;50.892;7.082;2024-01-07T14:48:47;13.97;;;5.83;;
3155;SDS011;1588;50.892;7.082;2024-01-07T14:53:51;8.13;;;4.43;;
3155;SDS011;1588;50.892;7.082;2024-01-07T14:58:54;11.00;;;5.53;;
3155;SDS011;1588;50.892;7.082;2024-01-07T15:03:58;9.60;;;5.00;;
3155;SDS011;1588;50.892;7.082;2024-01-07T15:09:01;10.73;;;4.70;;
3155;SDS011;1588;50.892;7.082;2024-01-07T15:14:03;6.20;;;3.60;;
3155;SDS011;1588;50.892;7.082;2024-01-07T15:19:08;14.63;;;3.87;;
3155;SDS011;1588;50.892;7.082;2024-01-07T15:24:11;6.17;;;3.10;;
3155;SDS011;1588;50.892;7.082;2024-01-07T15:29:14;8.30;;;3.27;;
3155;SDS011;1588;50.892;7.082;2024-01-07T15:34:18;6.43;;;3.43;;
3155;SDS011;1588;50.892;7.082;2024-01-07T15:39:20;4.77;;;2.97;;
3155;SDS011;1588;50.892;7.082;2024-01-07T15:44:22;5.47;;;3.47;;
3155;SDS011;1588;50.892;7.082;2024-01-07T15:49:29;6.30;;;3.10;;
3155;SDS011;1588;50.892;7.082;2024-01-07T15:54:31;4.33;;;2.80;;
3155;SDS011;1588;50.892;7.082;2024-01-07T15:59:33;5.40;;;2.73;;
3155;SDS011;1588;50.892;7.082;2024-01-07T16:04:38;4.60;;;2.57;;
3155;SDS011;1588;50.892;7.082;2024-01-07T16:09:41;4.60;;;3.07;;
3155;SDS011;1588;50.892;7.082;2024-01-07T16:14:44;2.50;;;2.03;;
3155;SDS011;1588;50.892;7.082;2024-01-07T16:19:49;6.70;;;2.50;;
3155;SDS011;1588;50.892;7.082;2024-01-07T16:24:52;4.07;;;2.47;;
3155;SDS011;1588;50.892;7.082;2024-01-07T16:29:54;5.23;;;2.73;;
3155;SDS011;1588;50.892;7.082;2024-01-07T16:34:58;5.10;;;3.00;;
3155;SDS011;1588;50.892;7.082;2024-01-07T16:40:01;3.30;;;1.97;;
3155;SDS011;1588;50.892;7.082;2024-01-07T16:45:04;3.93;;;2.17;;
3155;SDS011;1588;50.892;7.082;2024-01-07T16:50:10;4.40;;;2.37;;
3155;SDS011;1588;50.892;7.082;2024-01-07T16:55:13;3.63;;;1.80;;
3155;SDS011;1588;50.892;7.082;2024-01-07T17:00:15;3.40;;;1.90;;
3155;SDS011;1588;50.892;7.082;2024-01-07T17:05:21;6.07;;;2.57;;
3155;SDS011;1588;50.892;7.082;2024-01-07T17:10:23;6.83;;;2.03;;
3155;SDS011;1588;50.892;7.082;2024-01-07T17:15:25;2.53;;;1.80;;
3155;SDS011;1588;50.892;7.082;2024-01-07T17:20:29;2.90;;;1.80;;
3155;SDS011;1588;50.892;7.082;2024-01-07T17:25:31;2.90;;;1.73;;
3155;SDS011;1588;50.892;7.082;2024-01-07T17:30:34;2.97;;;2.20;;
3155;SDS011;1588;50.892;7.082;2024-01-07T17:35:39;4.13;;;2.10;;
3155;SDS011;1588;50.892;7.082;2024-01-07T17:40:42;1.90;;;1.30;;
3155;SDS011;1588;50.892;7.082;2024-01-07T17:45:45;6.60;;;2.93;;
3155;SDS011;1588;50.892;7.082;2024-01-07T17:50:49;6.53;;;3.83;;
3155;SDS011;1588;50.892;7.082;2024-01-07T17:55:52;4.90;;;2.37;;
3155;SDS011;1588;50.892;7.082;2024-01-07T18:00:54;5.53;;;2.50;;
3155;SDS011;1588;50.892;7.082;2024-01-07T18:05:59;11.00;;;2.20;;
3155;SDS011;1588;50.892;7.082;2024-01-07T18:11:02;3.33;;;1.80;;
3155;SDS011;1588;50.892;7.082;2024-01-07T18:16:06;5.03;;;2.80;;
3155;SDS011;1588;50.892;7.082;2024-01-07T18:21:14;4.30;;;2.40;;
3155;SDS011;1588;50.892;7.082;2024-01-07T18:26:17;2.60;;;1.83;;
3155;SDS011;1588;50.892;7.082;2024-01-07T18:31:20;5.13;;;2.80;;
3155;SDS011;1588;50.892;7.082;2024-01-07T18:36:25;4.10;;;2.87;;
3155;SDS011;1588;50.892;7.082;2024-01-07T18:41:28;5.00;;;2.90;;
3155;SDS011;1588;50.892;7.082;2024-01-07T18:46:30;6.67;;;2.60;;
3155;SDS011;1588;50.892;7.082;2024-01-07T18:51:34;4.27;;;2.23;;
3155;SDS011;1588;50.892;7.082;2024-01-07T18:56:41;6.03;;;3.07;;
3155;SDS011;1588;50.892;7.082;2024-01-07T19:01:44;3.30;;;2.03;;
3155;SDS011;1588;50.892;7.082;2024-01-07T19:06:47;4.67;;;2.73;;
3155;SDS011;1588;50.892;7.082;2024-01-07T19:11:50;6.50;;;2.60;;
3155;SDS011;1588;50.892;7.082;2024-01-07T19:16:52;3.20;;;1.87;;
3155;SDS011;1588;50.892;7.082;2024-01-07T19:21:56;8.23;;;2.50;;
3155;SDS011;1588;50.892;7.082;2024-01-07T19:26:58;3.40;;;1.90;;
3155;SDS011;1588;50.892;7.082;2024-01-07T19:32:02;2.77;;;1.87;;
3155;SDS011;1588;50.892;7.082;2024-01-07T19:37:06;7.83;;;2.27;;
3155;SDS011;1588;50.892;7.082;2024-01-07T19:42:10;5.13;;;2.43;;
3155;SDS011;1588;50.892;7.082;2024-01-07T19:47:19;2.60;;;1.60;;
3155;SDS011;1588;50.892;7.082;2024-01-07T19:52:22;2.70;;;1.77;;
3155;SDS011;1588;50.892;7.082;2024-01-07T19:57:25;4.17;;;1.87;;
3155;SDS011;1588;50.892;7.082;2024-01-07T20:02:30;2.67;;;1.63;;
3155;SDS011;1588;50.892;7.082;2024-01-07T20:07:34;2.63;;;1.93;;
3155;SDS011;1588;50.892;7.082;2024-01-07T20:12:36;1.57;;;1.37;;
3155;SDS011;1588;50.892;7.082;2024-01-07T20:17:39;4.90;;;2.57;;
3155;SDS011;1588;50.892;7.082;2024-01-07T20:22:42;3.80;;;2.00;;
3155;SDS011;1588;50.892;7.082;2024-01-07T20:27:45;3.47;;;1.70;;
3155;SDS011;1588;50.892;7.082;2024-01-07T20:32:47;3.50;;;2.27;;
3155;SDS011;1588;50.892;7.082;2024-01-07T20:37:51;3.03;;;2.00;;
3155;SDS011;1588;50.892;7.082;2024-01-07T20:42:54;3.13;;;2.10;;
3155;SDS011;1588;50.892;7.082;2024-01-07T20:47:56;5.00;;;2.53;;
3155;SDS011;1588;50.892;7.082;2024-01-07T21:04:55;4.50;;;2.77;;
3155;SDS011;1588;50.892;7.082;2024-01-07T21:09:57;5.23;;;3.17;;
3155;SDS011;1588;50.892;7.082;2024-01-07T21:20:49;6.97;;;2.80;;
3155;SDS011;1588;50.892;7.082;2024-01-07T21:25:51;5.07;;;2.97;;
3155;SDS011;1588;50.892;7.082;2024-01-07T21:30:54;7.50;;;3.23;;
3155;SDS011;1588;50.892;7.082;2024-01-07T21:36:00;6.30;;;3.50;;
3155;SDS011;1588;50.892;7.082;2024-01-07T21:41:03;5.67;;;2.77;;
3155;SDS011;1588;50.892;7.082;2024-01-07T21:46:05;3.77;;;2.47;;
3155;SDS011;1588;50.892;7.082;2024-01-07T21:51:10;5.63;;;2.90;;
3155;SDS011;1588;50.892;7.082;2024-01-07T21:56:12;4.37;;;2.50;;
3155;SDS011;1588;50.892;7.082;2024-01-07T22:01:15;6.40;;;3.03;;
3155;SDS011;1588;50.892;7.082;2024-01-07T22:06:19;5.90;;;2.87;;
3155;SDS011;1588;50.892;7.082;2024-01-07T22:11:21;4.40;;;2.27;;
3155;SDS011;1588;50.892;7.082;2024-01-07T22:16:24;3.00;;;1.97;;
3155;SDS011;1588;50.892;7.082;2024-01-07T22:21:28;3.10;;;2.03;;
3155;SDS011;1588;50.892;7.082;2024-01-07T22:26:31;4.10;;;1.80;;
3155;SDS011;1588;50.892;7.082;2024-01-07T22:31:33;4.03;;;1.70;;
3155;SDS011;1588;50.892;7.082;2024-01-07T22:36:38;4.40;;;1.97;;
3155;SDS011;1588;50.892;7.082;2024-01-07T22:41:41;3.10;;;2.03;;
3155;SDS011;1588;50.892;7.082;2024-01-07T22:46:45;3.53;;;1.90;;
3155;SDS011;1588;50.892;7.082;2024-01-07T22:51:50;4.53;;;2.03;;
3155;SDS011;1588;50.892;7.082;2024-01-07T22:56:54;4.83;;;2.53;;
3155;SDS011;1588;50.892;7.082;2024-01-07T23:01:57;4.80;;;2.00;;
3155;SDS011;1588;50.892;7.082;2024-01-07T23:07:00;3.60;;;1.70;;
3155;SDS011;1588;50.892;7.082;2024-01-07T23:12:03;5.43;;;2.00;;
3155;SDS011;1588;50.892;7.082;2024-01-07T23:17:05;4.10;;;2.27;;
3155;SDS011;1588;50.892;7.082;2024-01-07T23:22:09;5.33;;;2.47;;
3155;SDS011;1588;50.892;7.082;2024-01-07T23:27:11;2.73;;;1.80;;
3155;SDS011;1588;50.892;7.082;2024-01-07T23:32:14;4.53;;;2.40;;
3155;SDS011;1588;50.892;7.082;2024-01-07T23:37:17;3.17;;;1.70;;
3155;SDS011;1588;50.892;7.082;2024-01-07T23:42:20;3.30;;;1.83;;
3155;SDS011;1588;50.892;7.082;2024-01-07T23:47:22;5.57;;;2.77;;
3155;SDS011;1588;50.892;7.082;2024-01-07T23:52:25;5.83;;;2.30;;
3155;SDS011;1588;50.892;7.082;2024-01-07T23:57:29;5.33;;;2.17;;
